createdAt,value
2018-09-03T00:00:32.216Z,0
2018-09-03T00:01:12.741Z,0
2018-09-03T00:01:53.251Z,0
2018-09-03T00:02:33.780Z,0
2018-09-03T00:03:14.301Z,0
2018-09-03T00:03:54.827Z,0
2018-09-03T00:04:35.344Z,0
2018-09-03T00:05:15.856Z,0
2018-09-03T00:05:56.382Z,0
2018-09-03T00:06:36.884Z,0
2018-09-03T00:07:17.425Z,0
2018-09-03T00:09:51.027Z,0
2018-09-03T00:10:31.551Z,0
2018-09-03T00:11:12.081Z,0
2018-09-03T00:11:52.610Z,0
2018-09-03T00:12:33.119Z,0
2018-09-03T00:13:13.664Z,0
2018-09-03T00:13:54.195Z,0
2018-09-03T00:14:34.736Z,0
2018-09-03T00:15:15.251Z,0
2018-09-03T00:15:55.768Z,0
2018-09-03T00:16:36.281Z,0
2018-09-03T00:17:16.910Z,0
2018-09-03T00:17:57.420Z,0
2018-09-03T00:18:37.940Z,0
2018-09-03T00:19:18.461Z,0
2018-09-03T00:19:58.984Z,0
2018-09-03T00:20:39.492Z,0
2018-09-03T00:21:20.003Z,0
2018-09-03T00:22:00.690Z,0
2018-09-03T00:23:58.865Z,0
2018-09-03T00:24:39.385Z,0
2018-09-03T00:25:19.923Z,0
2018-09-03T00:26:00.707Z,0
2018-09-03T00:27:58.848Z,0
2018-09-03T00:28:39.358Z,0
2018-09-03T00:29:19.886Z,0
2018-09-03T00:30:01.337Z,0
2018-09-03T00:30:41.858Z,0
2018-09-03T00:31:22.368Z,0
2018-09-03T00:32:02.966Z,0
2018-09-03T00:32:43.481Z,0
2018-09-03T00:33:23.992Z,0
2018-09-03T00:34:04.505Z,0
2018-09-03T00:34:45.027Z,0
2018-09-03T00:35:25.550Z,0
2018-09-03T00:36:06.090Z,0
2018-09-03T00:36:46.609Z,0
2018-09-03T00:37:27.142Z,0
2018-09-03T00:38:07.666Z,0
2018-09-03T00:38:48.179Z,0
2018-09-03T00:39:28.682Z,0
2018-09-03T00:40:09.210Z,0
2018-09-03T00:40:49.741Z,0
2018-09-03T00:41:30.251Z,0
2018-09-03T00:42:10.804Z,0
2018-09-03T00:42:51.308Z,0
2018-09-03T00:43:31.865Z,0
2018-09-03T00:44:12.378Z,0
2018-09-03T00:44:52.894Z,0
2018-09-03T00:45:33.410Z,0
2018-09-03T00:46:13.940Z,0
2018-09-03T00:46:54.440Z,0
2018-09-03T00:47:34.970Z,0
2018-09-03T00:48:15.472Z,0
2018-09-03T00:48:55.990Z,0
2018-09-03T00:49:36.513Z,0
2018-09-03T00:50:17.044Z,0
2018-09-03T00:50:57.556Z,0
2018-09-03T00:51:38.083Z,0
2018-09-03T00:52:18.643Z,0
2018-09-03T00:52:59.161Z,0
2018-09-03T00:53:39.691Z,0
2018-09-03T00:54:20.193Z,0
2018-09-03T00:55:00.734Z,0
2018-09-03T00:55:41.251Z,0
2018-09-03T00:56:21.748Z,0
2018-09-03T00:57:02.270Z,0
2018-09-03T00:57:42.776Z,0
2018-09-03T00:58:23.284Z,0
2018-09-03T00:59:03.808Z,0
2018-09-03T00:59:44.336Z,0
2018-09-03T01:00:24.854Z,0
2018-09-03T01:01:06.167Z,0
2018-09-03T01:01:46.691Z,0
2018-09-03T01:02:27.212Z,0
2018-09-03T01:03:07.726Z,0
2018-09-03T01:03:48.270Z,0
2018-09-03T01:04:28.779Z,0
2018-09-03T01:05:09.302Z,0
2018-09-03T01:05:49.823Z,0
2018-09-03T01:06:30.339Z,0
2018-09-03T01:07:10.862Z,0
2018-09-03T01:07:51.375Z,0
2018-09-03T01:08:31.895Z,0
2018-09-03T01:09:12.405Z,0
2018-09-03T01:09:52.917Z,0
2018-09-03T01:10:33.447Z,0
2018-09-03T01:11:13.958Z,0
2018-09-03T01:11:54.480Z,0
2018-09-03T01:12:35.003Z,0
2018-09-03T01:13:15.518Z,0
2018-09-03T01:13:56.032Z,0
2018-09-03T01:14:36.577Z,0
2018-09-03T01:15:17.101Z,0
2018-09-03T01:15:57.616Z,0
2018-09-03T01:16:38.137Z,0
2018-09-03T01:17:18.654Z,0
2018-09-03T01:17:59.167Z,0
2018-09-03T01:18:39.791Z,0
2018-09-03T01:19:20.310Z,0
2018-09-03T01:20:00.842Z,0
2018-09-03T01:20:41.356Z,0
2018-09-03T01:21:21.883Z,0
2018-09-03T01:22:03.082Z,0
2018-09-03T01:22:43.601Z,0
2018-09-03T01:23:24.133Z,0
2018-09-03T01:24:04.639Z,0
2018-09-03T01:24:45.168Z,0
2018-09-03T01:25:25.686Z,0
2018-09-03T01:26:06.214Z,0
2018-09-03T01:26:46.727Z,0
2018-09-03T01:27:27.240Z,0
2018-09-03T01:28:07.788Z,0
2018-09-03T01:28:48.309Z,0
2018-09-03T01:29:28.819Z,0
2018-09-03T01:30:09.407Z,0
2018-09-03T01:30:49.923Z,0
2018-09-03T01:31:30.451Z,0
2018-09-03T01:32:10.958Z,0
2018-09-03T01:32:51.467Z,0
2018-09-03T01:33:31.985Z,0
2018-09-03T01:34:12.504Z,0
2018-09-03T01:34:53.138Z,0
2018-09-03T01:35:33.655Z,0
2018-09-03T01:36:14.182Z,0
2018-09-03T01:36:54.689Z,0
2018-09-03T01:37:35.220Z,0
2018-09-03T01:38:15.734Z,0
2018-09-03T01:38:56.254Z,0
2018-09-03T01:39:36.775Z,0
2018-09-03T01:40:17.302Z,0
2018-09-03T01:40:57.807Z,0
2018-09-03T01:41:38.348Z,0
2018-09-03T01:42:18.864Z,0
2018-09-03T01:42:59.391Z,0
2018-09-03T01:43:39.904Z,0
2018-09-03T01:44:20.441Z,0
2018-09-03T01:45:00.953Z,0
2018-09-03T01:45:41.487Z,0
2018-09-03T01:46:21.988Z,0
2018-09-03T01:47:02.504Z,0
2018-09-03T01:47:43.032Z,0
2018-09-03T01:48:23.557Z,0
2018-09-03T01:49:04.069Z,0
2018-09-03T01:49:44.594Z,0
2018-09-03T01:50:25.115Z,0
2018-09-03T01:51:05.630Z,0
2018-09-03T01:51:46.147Z,0
2018-09-03T01:52:26.676Z,0
2018-09-03T01:53:07.205Z,0
2018-09-03T01:53:47.726Z,0
2018-09-03T01:54:28.243Z,0
2018-09-03T01:55:08.765Z,0
2018-09-03T01:55:49.292Z,0
2018-09-03T01:56:29.806Z,0
2018-09-03T01:57:10.312Z,0
2018-09-03T01:57:50.831Z,0
2018-09-03T01:58:31.342Z,0
2018-09-03T01:59:11.863Z,0
2018-09-03T01:59:52.379Z,0
2018-09-03T02:00:32.901Z,0
2018-09-03T02:01:13.420Z,0
2018-09-03T02:01:53.933Z,0
2018-09-03T02:02:34.463Z,0
2018-09-03T02:03:15.024Z,0
2018-09-03T02:03:55.498Z,0
2018-09-03T02:04:36.014Z,0
2018-09-03T02:05:16.528Z,0
2018-09-03T02:05:57.054Z,0
2018-09-03T02:06:37.574Z,0
2018-09-03T02:07:18.096Z,0
2018-09-03T02:07:58.632Z,0
2018-09-03T02:08:39.147Z,0
2018-09-03T02:09:19.665Z,0
2018-09-03T02:10:00.181Z,0
2018-09-03T02:10:40.696Z,0
2018-09-03T02:11:21.218Z,0
2018-09-03T02:12:01.746Z,0
2018-09-03T02:12:42.281Z,0
2018-09-03T02:13:22.790Z,0
2018-09-03T02:14:03.296Z,0
2018-09-03T02:14:43.812Z,0
2018-09-03T02:15:24.328Z,0
2018-09-03T02:16:04.844Z,0
2018-09-03T02:16:45.369Z,0
2018-09-03T02:17:25.886Z,0
2018-09-03T02:18:06.403Z,0
2018-09-03T02:18:46.932Z,0
2018-09-03T02:19:27.544Z,0
2018-09-03T02:20:08.066Z,0
2018-09-03T02:20:48.585Z,0
2018-09-03T02:21:29.112Z,0
2018-09-03T02:22:09.622Z,0
2018-09-03T02:22:50.175Z,0
2018-09-03T02:23:30.652Z,0
2018-09-03T02:24:11.180Z,0
2018-09-03T02:24:51.698Z,0
2018-09-03T02:25:32.224Z,0
2018-09-03T02:26:12.739Z,0
2018-09-03T02:26:53.267Z,0
2018-09-03T02:27:33.777Z,0
2018-09-03T02:28:14.289Z,0
2018-09-03T02:28:54.797Z,0
2018-09-03T02:29:35.329Z,0
2018-09-03T02:30:15.841Z,0
2018-09-03T02:30:56.363Z,0
2018-09-03T02:31:36.869Z,0
2018-09-03T02:32:17.403Z,0
2018-09-03T02:32:58.061Z,0
2018-09-03T02:33:38.575Z,0
2018-09-03T02:34:19.105Z,0
2018-09-03T02:34:59.606Z,0
2018-09-03T02:35:40.131Z,0
2018-09-03T02:36:20.643Z,0
2018-09-03T02:37:01.153Z,0
2018-09-03T02:37:41.677Z,0
2018-09-03T02:38:22.198Z,0
2018-09-03T02:39:02.720Z,0
2018-09-03T02:39:43.238Z,0
2018-09-03T02:40:23.767Z,0
2018-09-03T02:41:04.297Z,0
2018-09-03T02:41:44.817Z,0
2018-09-03T02:42:25.404Z,0
2018-09-03T02:43:05.922Z,0
2018-09-03T02:43:46.445Z,0
2018-09-03T02:44:26.958Z,0
2018-09-03T02:45:07.483Z,0
2018-09-03T02:45:47.997Z,0
2018-09-03T02:46:28.531Z,0
2018-09-03T02:47:09.052Z,0
2018-09-03T02:47:49.577Z,0
2018-09-03T02:48:30.083Z,0
2018-09-03T02:49:10.612Z,0
2018-09-03T02:49:51.133Z,0
2018-09-03T02:50:31.659Z,0
2018-09-03T02:51:12.219Z,0
2018-09-03T02:51:52.743Z,0
2018-09-03T02:52:33.260Z,0
2018-09-03T02:53:13.784Z,0
2018-09-03T02:53:54.306Z,0
2018-09-03T02:54:34.830Z,0
2018-09-03T02:55:15.343Z,0
2018-09-03T02:55:55.861Z,0
2018-09-03T02:56:36.379Z,0
2018-09-03T02:57:16.915Z,0
2018-09-03T02:57:57.442Z,0
2018-09-03T02:58:37.957Z,0
2018-09-03T02:59:18.476Z,0
2018-09-03T02:59:59.001Z,0
2018-09-03T03:00:39.525Z,0
2018-09-03T03:01:20.045Z,0
2018-09-03T03:02:00.559Z,0
2018-09-03T03:02:41.075Z,0
2018-09-03T03:03:21.582Z,0
2018-09-03T03:04:02.113Z,0
2018-09-03T03:04:42.620Z,0
2018-09-03T03:05:23.135Z,0
2018-09-03T03:06:03.660Z,0
2018-09-03T03:06:44.190Z,0
2018-09-03T03:07:24.709Z,0
2018-09-03T03:08:05.304Z,0
2018-09-03T03:08:45.823Z,0
2018-09-03T03:09:26.344Z,0
2018-09-03T03:10:06.858Z,0
2018-09-03T03:10:47.366Z,0
2018-09-03T03:11:27.886Z,0
2018-09-03T03:12:08.395Z,0
2018-09-03T03:12:48.911Z,0
2018-09-03T03:13:29.439Z,0
2018-09-03T03:14:09.967Z,0
2018-09-03T03:14:50.479Z,0
2018-09-03T03:15:31.000Z,0
2018-09-03T03:16:11.504Z,0
2018-09-03T03:16:52.027Z,0
2018-09-03T03:17:32.560Z,0
2018-09-03T03:18:13.060Z,0
2018-09-03T03:18:53.590Z,0
2018-09-03T03:19:34.105Z,0
2018-09-03T03:20:14.635Z,0
2018-09-03T03:20:55.142Z,0
2018-09-03T03:21:35.728Z,0
2018-09-03T03:22:16.249Z,0
2018-09-03T03:22:56.770Z,0
2018-09-03T03:23:37.286Z,0
2018-09-03T03:24:17.810Z,0
2018-09-03T03:24:58.324Z,0
2018-09-03T03:25:38.860Z,0
2018-09-03T03:26:19.391Z,0
2018-09-03T03:26:59.913Z,0
2018-09-03T03:27:40.465Z,0
2018-09-03T03:28:20.991Z,0
2018-09-03T03:29:01.503Z,0
2018-09-03T03:29:42.030Z,0
2018-09-03T03:30:22.550Z,0
2018-09-03T03:31:03.151Z,0
2018-09-03T03:31:43.679Z,0
2018-09-03T03:32:24.199Z,0
2018-09-03T03:33:04.719Z,0
2018-09-03T03:33:45.228Z,0
2018-09-03T03:34:25.800Z,0
2018-09-03T03:35:06.339Z,0
2018-09-03T03:35:46.841Z,0
2018-09-03T03:36:27.395Z,0
2018-09-03T03:37:07.919Z,0
2018-09-03T03:37:48.432Z,0
2018-09-03T03:38:28.965Z,0
2018-09-03T03:39:09.483Z,0
2018-09-03T03:39:49.999Z,0
2018-09-03T03:40:30.528Z,0
2018-09-03T03:41:11.037Z,0
2018-09-03T03:41:51.552Z,0
2018-09-03T03:42:32.080Z,0
2018-09-03T03:43:12.604Z,0
2018-09-03T03:43:53.125Z,0
2018-09-03T03:44:33.651Z,0
2018-09-03T03:45:14.219Z,0
2018-09-03T03:45:54.765Z,0
2018-09-03T03:46:35.284Z,0
2018-09-03T03:47:15.805Z,0
2018-09-03T03:47:56.326Z,0
2018-09-03T03:48:36.929Z,0
2018-09-03T03:49:17.375Z,0
2018-09-03T03:49:57.895Z,0
2018-09-03T03:50:38.415Z,0
2018-09-03T03:51:18.928Z,0
2018-09-03T03:51:59.545Z,0
2018-09-03T03:52:40.109Z,0
2018-09-03T03:53:20.702Z,0
2018-09-03T03:54:01.201Z,0
2018-09-03T03:54:41.724Z,0
2018-09-03T03:55:22.244Z,0
2018-09-03T03:56:02.766Z,0
2018-09-03T03:56:43.306Z,0
2018-09-03T03:57:23.823Z,0
2018-09-03T03:58:04.335Z,0
2018-09-03T03:58:44.849Z,0
2018-09-03T03:59:25.371Z,0
2018-09-03T04:00:05.891Z,0
2018-09-03T04:00:46.405Z,0
2018-09-03T04:01:26.921Z,0
2018-09-03T04:02:07.443Z,0
2018-09-03T04:02:47.975Z,0
2018-09-03T04:03:28.489Z,0
2018-09-03T04:04:09.020Z,0
2018-09-03T04:04:49.541Z,0
2018-09-03T04:05:30.062Z,0
2018-09-03T04:06:10.594Z,0
2018-09-03T04:06:51.105Z,0
2018-09-03T04:07:31.676Z,0
2018-09-03T04:08:12.192Z,0
2018-09-03T04:08:52.701Z,0
2018-09-03T04:09:33.220Z,0
2018-09-03T04:10:13.742Z,0
2018-09-03T04:10:54.252Z,0
2018-09-03T04:11:34.774Z,0
2018-09-03T04:12:15.292Z,0
2018-09-03T04:12:55.838Z,0
2018-09-03T04:13:36.362Z,0
2018-09-03T04:14:17.018Z,0
2018-09-03T04:14:57.540Z,0
2018-09-03T04:15:38.060Z,0
2018-09-03T04:16:18.582Z,0
2018-09-03T04:16:59.103Z,0
2018-09-03T04:17:39.627Z,0
2018-09-03T04:18:20.155Z,0
2018-09-03T04:19:00.681Z,0
2018-09-03T04:19:41.191Z,0
2018-09-03T04:20:21.720Z,0
2018-09-03T04:21:02.307Z,0
2018-09-03T04:21:42.788Z,0
2018-09-03T04:22:23.312Z,0
2018-09-03T04:23:03.855Z,0
2018-09-03T04:23:44.340Z,0
2018-09-03T04:24:24.846Z,0
2018-09-03T04:25:05.370Z,0
2018-09-03T04:25:45.899Z,0
2018-09-03T04:26:26.423Z,0
2018-09-03T04:27:06.936Z,0
2018-09-03T04:27:47.461Z,0
2018-09-03T04:28:27.984Z,4
2018-09-03T04:29:08.523Z,4
2018-09-03T04:29:49.019Z,0
2018-09-03T04:30:29.541Z,4
2018-09-03T04:31:10.054Z,4
2018-09-03T04:31:50.571Z,8
2018-09-03T04:32:31.097Z,4
2018-09-03T04:33:11.612Z,8
2018-09-03T04:33:52.128Z,8
2018-09-03T04:34:32.643Z,4
2018-09-03T04:35:13.160Z,4
2018-09-03T04:35:53.701Z,4
2018-09-03T04:36:34.218Z,4
2018-09-03T04:37:14.749Z,4
2018-09-03T04:37:55.263Z,8
2018-09-03T04:38:35.797Z,8
2018-09-03T04:39:16.314Z,8
2018-09-03T04:39:56.841Z,12
2018-09-03T04:40:37.397Z,12
2018-09-03T04:41:17.910Z,12
2018-09-03T04:41:58.423Z,12
2018-09-03T04:42:38.944Z,16
2018-09-03T04:43:19.463Z,16
2018-09-03T04:43:59.983Z,16
2018-09-03T04:44:40.507Z,16
2018-09-03T04:45:21.035Z,16
2018-09-03T04:46:01.570Z,16
2018-09-03T04:46:42.090Z,16
2018-09-03T04:47:22.625Z,16
2018-09-03T04:48:03.154Z,16
2018-09-03T04:48:43.653Z,16
2018-09-03T04:49:24.177Z,16
2018-09-03T04:50:04.863Z,16
2018-09-03T04:50:45.401Z,20
2018-09-03T04:51:25.914Z,24
2018-09-03T04:52:06.432Z,28
2018-09-03T04:52:46.946Z,36
2018-09-03T04:53:27.457Z,44
2018-09-03T04:54:08.002Z,56
2018-09-03T04:54:48.558Z,76
2018-09-03T04:55:29.061Z,92
2018-09-03T04:56:09.583Z,108
2018-09-03T04:56:50.098Z,116
2018-09-03T04:57:30.623Z,124
2018-09-03T04:58:11.152Z,124
2018-09-03T04:58:51.667Z,132
2018-09-03T04:59:32.185Z,136
2018-09-03T05:00:12.699Z,144
2018-09-03T05:00:53.221Z,152
2018-09-03T05:01:33.727Z,164
2018-09-03T05:02:14.249Z,168
2018-09-03T05:02:54.766Z,172
2018-09-03T05:03:35.280Z,164
2018-09-03T05:04:15.861Z,156
2018-09-03T05:04:56.385Z,140
2018-09-03T05:05:36.895Z,124
2018-09-03T05:06:17.411Z,116
2018-09-03T05:06:57.938Z,112
2018-09-03T05:07:38.454Z,116
2018-09-03T05:08:18.974Z,128
2018-09-03T05:08:59.501Z,144
2018-09-03T05:09:40.037Z,168
2018-09-03T05:10:20.559Z,192
2018-09-03T05:11:01.083Z,220
2018-09-03T05:11:41.876Z,240
2018-09-03T05:12:22.418Z,256
2018-09-03T05:13:02.927Z,268
2018-09-03T05:13:43.448Z,276
2018-09-03T05:14:23.963Z,280
2018-09-03T05:15:04.488Z,276
2018-09-03T05:15:45.006Z,268
2018-09-03T05:16:25.524Z,264
2018-09-03T05:17:06.041Z,260
2018-09-03T05:17:46.570Z,256
2018-09-03T05:18:27.264Z,248
2018-09-03T05:19:07.812Z,248
2018-09-03T05:19:48.325Z,252
2018-09-03T05:20:28.860Z,256
2018-09-03T05:21:09.373Z,260
2018-09-03T05:21:49.885Z,268
2018-09-03T05:22:30.404Z,272
2018-09-03T05:23:10.940Z,272
2018-09-03T05:23:51.447Z,264
2018-09-03T05:24:31.957Z,252
2018-09-03T05:25:12.955Z,244
2018-09-03T05:25:53.456Z,244
2018-09-03T05:26:33.962Z,252
2018-09-03T05:27:14.467Z,260
2018-09-03T05:27:54.992Z,280
2018-09-03T05:28:35.507Z,292
2018-09-03T05:29:16.052Z,296
2018-09-03T05:29:56.526Z,284
2018-09-03T05:30:37.058Z,268
2018-09-03T05:31:17.580Z,248
2018-09-03T05:31:58.117Z,236
2018-09-03T05:32:38.642Z,228
2018-09-03T05:33:19.160Z,232
2018-09-03T05:33:59.696Z,240
2018-09-03T05:34:40.270Z,260
2018-09-03T05:35:20.798Z,280
2018-09-03T05:36:01.314Z,308
2018-09-03T05:36:42.055Z,324
2018-09-03T05:37:23.402Z,340
2018-09-03T05:38:03.102Z,348
2018-09-03T05:38:43.637Z,360
2018-09-03T05:39:24.165Z,368
2018-09-03T05:40:04.675Z,372
2018-09-03T05:40:45.326Z,372
2018-09-03T05:41:25.849Z,360
2018-09-03T05:42:06.376Z,352
2018-09-03T05:42:46.884Z,336
2018-09-03T05:43:27.595Z,320
2018-09-03T05:44:08.003Z,316
2018-09-03T05:44:48.461Z,312
2018-09-03T05:45:28.999Z,316
2018-09-03T05:46:09.584Z,320
2018-09-03T05:46:50.148Z,332
2018-09-03T05:47:30.670Z,348
2018-09-03T05:48:11.188Z,372
2018-09-03T05:48:51.729Z,404
2018-09-03T05:49:32.251Z,428
2018-09-03T05:50:12.804Z,464
2018-09-03T05:50:53.318Z,496
2018-09-03T05:51:33.830Z,532
2018-09-03T05:52:14.413Z,564
2018-09-03T05:52:54.905Z,588
2018-09-03T05:53:35.441Z,612
2018-09-03T05:54:15.958Z,624
2018-09-03T05:54:56.482Z,632
2018-09-03T05:55:37.017Z,616
2018-09-03T05:56:17.552Z,616
2018-09-03T05:56:58.101Z,608
2018-09-03T05:57:38.595Z,608
2018-09-03T05:58:19.135Z,600
2018-09-03T05:58:59.659Z,584
2018-09-03T05:59:40.171Z,588
2018-09-03T06:00:20.691Z,584
2018-09-03T06:01:01.299Z,580
2018-09-03T06:01:41.847Z,600
2018-09-03T06:02:22.514Z,608
2018-09-03T06:03:03.045Z,616
2018-09-03T06:03:43.560Z,644
2018-09-03T06:04:24.075Z,688
2018-09-03T06:05:04.614Z,732
2018-09-03T06:05:45.176Z,764
2018-09-03T06:06:25.697Z,788
2018-09-03T06:07:06.214Z,840
2018-09-03T06:07:46.756Z,856
2018-09-03T06:08:27.255Z,824
2018-09-03T06:09:07.760Z,784
2018-09-03T06:09:48.286Z,760
2018-09-03T06:10:28.847Z,724
2018-09-03T06:11:09.371Z,692
2018-09-03T06:11:49.854Z,660
2018-09-03T06:12:30.378Z,636
2018-09-03T06:13:10.881Z,636
2018-09-03T06:13:51.430Z,648
2018-09-03T06:14:31.951Z,668
2018-09-03T06:15:12.469Z,684
2018-09-03T06:15:52.985Z,688
2018-09-03T06:16:33.493Z,684
2018-09-03T06:17:14.024Z,684
2018-09-03T06:17:54.653Z,664
2018-09-03T06:18:35.127Z,660
2018-09-03T06:19:15.656Z,648
2018-09-03T06:19:56.176Z,636
2018-09-03T06:20:36.795Z,616
2018-09-03T06:21:17.313Z,592
2018-09-03T06:21:57.818Z,576
2018-09-03T06:22:38.379Z,568
2018-09-03T06:23:18.915Z,560
2018-09-03T06:23:59.469Z,556
2018-09-03T06:24:39.961Z,552
2018-09-03T06:25:20.481Z,564
2018-09-03T06:26:01.009Z,572
2018-09-03T06:26:41.619Z,572
2018-09-03T06:27:22.049Z,576
2018-09-03T06:28:02.575Z,556
2018-09-03T06:28:43.262Z,548
2018-09-03T06:29:23.789Z,544
2018-09-03T06:30:04.323Z,556
2018-09-03T06:30:44.857Z,560
2018-09-03T06:31:25.425Z,552
2018-09-03T06:32:05.897Z,540
2018-09-03T06:32:46.427Z,568
2018-09-03T06:33:26.945Z,596
2018-09-03T06:34:07.746Z,620
2018-09-03T06:34:48.329Z,644
2018-09-03T06:35:29.013Z,668
2018-09-03T06:36:09.536Z,688
2018-09-03T06:36:50.048Z,704
2018-09-03T06:37:30.585Z,724
2018-09-03T06:38:11.099Z,752
2018-09-03T06:38:51.618Z,776
2018-09-03T06:39:32.145Z,792
2018-09-03T06:40:12.660Z,824
2018-09-03T06:40:53.200Z,860
2018-09-03T06:41:33.699Z,908
2018-09-03T06:42:14.249Z,940
2018-09-03T06:42:54.709Z,984
2018-09-03T06:43:35.227Z,1036
2018-09-03T06:44:15.744Z,1068
2018-09-03T06:44:56.250Z,1080
2018-09-03T06:45:36.771Z,1044
2018-09-03T06:46:17.293Z,988
2018-09-03T06:46:57.822Z,924
2018-09-03T06:47:38.339Z,876
2018-09-03T06:48:18.896Z,824
2018-09-03T06:48:59.386Z,808
2018-09-03T06:49:39.907Z,808
2018-09-03T06:50:20.436Z,836
2018-09-03T06:51:00.965Z,860
2018-09-03T06:51:41.476Z,876
2018-09-03T06:52:22.010Z,880
2018-09-03T06:53:02.538Z,892
2018-09-03T06:53:43.065Z,908
2018-09-03T06:54:23.593Z,916
2018-09-03T06:55:04.117Z,940
2018-09-03T06:55:44.634Z,964
2018-09-03T06:56:25.141Z,988
2018-09-03T06:57:05.660Z,1004
2018-09-03T06:57:46.182Z,1012
2018-09-03T06:58:26.721Z,1032
2018-09-03T06:59:07.223Z,1080
2018-09-03T06:59:47.745Z,1096
2018-09-03T07:00:28.267Z,1088
2018-09-03T07:01:08.783Z,1072
2018-09-03T07:01:49.315Z,1064
2018-09-03T07:02:29.877Z,1056
2018-09-03T07:03:10.408Z,1056
2018-09-03T07:03:50.960Z,1064
2018-09-03T07:04:31.511Z,1084
2018-09-03T07:05:12.036Z,1088
2018-09-03T07:05:52.581Z,1096
2018-09-03T07:06:33.071Z,1104
2018-09-03T07:07:13.596Z,1116
2018-09-03T07:07:54.135Z,1140
2018-09-03T07:08:34.656Z,1164
2018-09-03T07:09:15.236Z,1180
2018-09-03T07:09:55.693Z,1196
2018-09-03T07:10:36.213Z,1196
2018-09-03T07:11:16.864Z,1204
2018-09-03T07:11:57.406Z,1212
2018-09-03T07:12:37.920Z,1244
2018-09-03T07:13:18.429Z,1248
2018-09-03T07:13:58.950Z,1216
2018-09-03T07:14:39.514Z,1196
2018-09-03T07:15:19.977Z,1192
2018-09-03T07:16:00.524Z,1180
2018-09-03T07:16:41.044Z,1152
2018-09-03T07:17:21.568Z,1172
2018-09-03T07:18:02.093Z,1200
2018-09-03T07:18:42.628Z,1240
2018-09-03T07:19:23.141Z,1284
2018-09-03T07:20:03.659Z,1316
2018-09-03T07:20:44.190Z,1344
2018-09-03T07:21:24.709Z,1372
2018-09-03T07:22:05.234Z,1388
2018-09-03T07:22:45.748Z,1396
2018-09-03T07:23:26.268Z,1400
2018-09-03T07:24:06.775Z,1404
2018-09-03T07:24:47.291Z,1408
2018-09-03T07:25:27.811Z,1420
2018-09-03T07:26:08.390Z,1420
2018-09-03T07:26:48.908Z,1404
2018-09-03T07:27:29.427Z,1376
2018-09-03T07:28:09.968Z,1336
2018-09-03T07:28:50.511Z,1304
2018-09-03T07:29:30.991Z,1268
2018-09-03T07:30:11.499Z,1248
2018-09-03T07:30:52.046Z,1248
2018-09-03T07:31:32.558Z,1264
2018-09-03T07:34:06.574Z,1308
2018-09-03T07:34:47.226Z,1308
2018-09-03T07:35:28.080Z,1296
2018-09-03T07:36:08.516Z,1288
2018-09-03T07:36:49.007Z,1280
2018-09-03T07:39:02.292Z,1208
2018-09-03T07:39:42.837Z,1192
2018-09-03T07:40:23.316Z,1184
2018-09-03T07:41:03.836Z,1208
2018-09-03T07:41:44.354Z,1240
2018-09-03T07:42:24.979Z,1256
2018-09-03T07:43:05.502Z,1264
2018-09-03T07:43:46.098Z,1268
2018-09-03T07:44:26.619Z,1280
2018-09-03T07:45:07.473Z,1296
2018-09-03T07:45:47.988Z,1316
2018-09-03T07:46:28.492Z,1336
2018-09-03T07:47:09.029Z,1364
2018-09-03T07:47:49.549Z,1388
2018-09-03T07:48:30.069Z,1408
2018-09-03T07:49:10.609Z,1436
2018-09-03T07:49:51.126Z,1448
2018-09-03T07:50:31.651Z,1448
2018-09-03T07:51:12.210Z,1424
2018-09-03T07:51:52.684Z,1396
2018-09-03T07:52:33.214Z,1384
2018-09-03T07:53:13.760Z,1376
2018-09-03T07:53:54.278Z,1372
2018-09-03T07:54:34.795Z,1368
2018-09-03T07:55:15.328Z,1368
2018-09-03T07:55:55.847Z,1384
2018-09-03T07:56:36.358Z,1412
2018-09-03T07:57:16.878Z,1432
2018-09-03T07:57:57.396Z,1452
2018-09-03T07:58:37.917Z,1472
2018-09-03T07:59:18.432Z,1492
2018-09-03T07:59:58.938Z,1540
2018-09-03T08:00:39.464Z,1600
2018-09-03T08:01:20.021Z,1692
2018-09-03T08:02:00.492Z,1780
2018-09-03T08:02:41.019Z,1836
2018-09-03T08:03:22.287Z,1844
2018-09-03T08:04:02.824Z,1820
2018-09-03T08:04:43.411Z,1776
2018-09-03T08:05:23.924Z,1740
2018-09-03T08:06:04.440Z,1732
2018-09-03T08:06:44.986Z,1760
2018-09-03T08:07:25.560Z,1816
2018-09-03T08:08:06.053Z,1904
2018-09-03T08:08:46.582Z,1988
2018-09-03T08:09:27.308Z,2060
2018-09-03T08:10:07.824Z,2116
2018-09-03T08:10:48.348Z,2172
2018-09-03T08:11:28.847Z,2220
2018-09-03T08:12:09.363Z,2252
2018-09-03T08:12:49.894Z,2288
2018-09-03T08:13:30.395Z,2316
2018-09-03T08:14:10.916Z,2332
2018-09-03T08:14:51.419Z,2328
2018-09-03T08:15:31.955Z,2308
2018-09-03T08:16:12.468Z,2284
2018-09-03T08:16:52.990Z,2268
2018-09-03T08:17:33.508Z,2276
2018-09-03T08:20:07.317Z,2440
2018-09-03T08:20:47.752Z,2468
2018-09-03T08:21:28.370Z,2492
2018-09-03T08:22:09.014Z,2524
2018-09-03T08:22:49.571Z,2564
2018-09-03T08:23:30.087Z,2608
2018-09-03T08:24:10.618Z,2660
2018-09-03T08:24:51.170Z,2712
2018-09-03T08:25:31.687Z,2760
2018-09-03T08:26:12.199Z,2784
2018-09-03T08:26:52.718Z,2776
2018-09-03T08:27:33.239Z,2760
2018-09-03T08:28:13.770Z,2752
2018-09-03T08:28:54.286Z,2760
2018-09-03T08:29:34.816Z,2792
2018-09-03T08:30:15.356Z,2840
2018-09-03T08:30:55.842Z,2868
2018-09-03T08:31:36.352Z,2864
2018-09-03T08:32:16.867Z,2856
2018-09-03T08:32:57.389Z,2848
2018-09-03T08:33:37.954Z,2852
2018-09-03T08:34:18.464Z,2888
2018-09-03T08:34:59.024Z,2960
2018-09-03T08:35:39.690Z,3052
2018-09-03T08:36:20.152Z,3200
2018-09-03T08:37:00.711Z,3368
2018-09-03T08:37:41.252Z,3532
2018-09-03T08:38:21.798Z,3668
2018-09-03T08:39:02.313Z,3728
2018-09-03T08:39:42.828Z,3748
2018-09-03T08:40:23.357Z,3772
2018-09-03T08:41:03.895Z,3808
2018-09-03T08:41:44.446Z,3820
2018-09-03T08:42:25.035Z,3836
2018-09-03T08:44:23.256Z,3824
2018-09-03T08:45:03.763Z,3792
2018-09-03T08:45:44.353Z,3760
2018-09-03T08:46:24.876Z,3732
2018-09-03T08:47:05.433Z,3696
2018-09-03T08:47:46.068Z,3660
2018-09-03T08:48:26.593Z,3628
2018-09-03T08:49:07.108Z,3612
2018-09-03T08:49:47.623Z,3604
2018-09-03T08:50:28.280Z,3592
2018-09-03T08:51:08.690Z,3568
2018-09-03T08:51:49.197Z,3544
2018-09-03T08:52:29.728Z,3500
2018-09-03T08:53:10.279Z,3440
2018-09-03T08:55:29.027Z,3284
2018-09-03T08:56:09.558Z,3232
2018-09-03T08:56:50.158Z,3200
2018-09-03T08:57:30.603Z,3172
2018-09-03T08:58:12.874Z,3148
2018-09-03T08:58:54.744Z,3120
2018-09-03T08:59:35.277Z,3080
2018-09-03T09:00:15.800Z,3028
2018-09-03T09:00:56.327Z,2980
2018-09-03T09:01:36.861Z,2948
2018-09-03T09:02:17.362Z,2948
2018-09-03T09:02:57.902Z,2984
2018-09-03T09:03:38.440Z,3100
2018-09-03T09:04:19.103Z,3248
2018-09-03T09:04:59.615Z,3360
2018-09-03T09:05:40.173Z,3472
2018-09-03T09:06:20.672Z,3592
2018-09-03T09:07:01.231Z,3712
2018-09-03T09:07:41.761Z,3824
2018-09-03T09:08:22.291Z,3904
2018-09-03T09:09:02.819Z,3944
2018-09-03T09:09:43.349Z,4036
2018-09-03T09:10:23.896Z,4240
2018-09-03T09:11:04.580Z,4408
2018-09-03T09:11:45.195Z,4552
2018-09-03T09:12:25.622Z,4724
2018-09-03T09:13:06.122Z,4928
2018-09-03T09:13:46.645Z,5096
2018-09-03T09:14:27.161Z,5256
2018-09-03T09:15:07.669Z,5432
2018-09-03T09:15:48.175Z,5620
2018-09-03T09:16:28.701Z,5848
2018-09-03T09:17:09.214Z,6160
2018-09-03T09:17:49.749Z,6524
2018-09-03T09:18:30.271Z,6868
2018-09-03T09:19:10.852Z,7180
2018-09-03T09:19:51.412Z,7408
2018-09-03T09:20:31.967Z,7640
2018-09-03T09:21:12.503Z,7836
2018-09-03T09:21:53.030Z,7976
2018-09-03T09:22:33.621Z,8068
2018-09-03T09:23:14.151Z,8164
2018-09-03T09:23:54.678Z,8220
2018-09-03T09:24:35.285Z,8192
2018-09-03T09:25:15.723Z,8128
2018-09-03T09:25:56.238Z,8064
2018-09-03T09:26:36.799Z,8056
2018-09-03T09:27:17.297Z,8032
2018-09-03T09:27:57.817Z,8044
2018-09-03T09:28:38.345Z,8216
2018-09-03T09:29:18.853Z,8308
2018-09-03T09:29:59.379Z,8280
2018-09-03T09:30:39.916Z,8220
2018-09-03T09:31:20.440Z,8080
2018-09-03T09:32:00.958Z,7920
2018-09-03T09:32:41.496Z,7792
2018-09-03T09:33:22.026Z,7740
2018-09-03T09:34:02.563Z,7764
2018-09-03T09:34:43.086Z,7756
2018-09-03T09:35:23.606Z,7672
2018-09-03T09:36:04.132Z,7732
2018-09-03T09:36:45.405Z,7856
2018-09-03T09:37:25.916Z,7816
2018-09-03T09:38:06.437Z,7676
2018-09-03T09:38:46.974Z,7528
2018-09-03T09:39:27.480Z,7340
2018-09-03T09:40:08.003Z,7416
2018-09-03T09:40:48.520Z,7564
2018-09-03T09:41:29.075Z,7800
2018-09-03T09:42:09.575Z,8084
2018-09-03T09:42:51.024Z,8456
2018-09-03T09:43:31.508Z,8800
2018-09-03T09:44:12.021Z,8796
2018-09-03T09:44:52.555Z,8656